sensor_id;sensor_type;location;lat;lon;timestamp;pressure;altitude;pressure_sealevel;temperature
54746;BMP180;40640;48.130;11.356;2023-02-03T00:03:19;96596.00;;;6.30
54746;BMP180;40640;48.130;11.356;2023-02-03T00:07:22;96619.00;;;6.40
54746;BMP180;40640;48.130;11.356;2023-02-03T00:11:25;96611.00;;;6.30
54746;BMP180;40640;48.130;11.356;2023-02-03T00:15:30;96623.00;;;6.30
54746;BMP180;40640;48.130;11.356;2023-02-03T00:19:32;96625.00;;;6.20
54746;BMP180;40640;48.130;11.356;2023-02-03T00:23:35;96601.00;;;6.30
54746;BMP180;40640;48.130;11.356;2023-02-03T00:27:38;96610.00;;;6.30
54746;BMP180;40640;48.130;11.356;2023-02-03T00:31:42;96605.00;;;6.50
54746;BMP180;40640;48.130;11.356;2023-02-03T00:35:45;96610.00;;;6.40
54746;BMP180;40640;48.130;11.356;2023-02-03T00:39:48;96594.00;;;6.20
54746;BMP180;40640;48.130;11.356;2023-02-03T00:43:53;96599.00;;;6.40
54746;BMP180;40640;48.130;11.356;2023-02-03T00:47:57;96600.00;;;6.40
54746;BMP180;40640;48.130;11.356;2023-02-03T00:52:00;96601.00;;;6.30
54746;BMP180;40640;48.130;11.356;2023-02-03T00:56:03;96616.00;;;6.40
54746;BMP180;40640;48.130;11.356;2023-02-03T01:00:13;96597.00;;;6.40
54746;BMP180;40640;48.130;11.356;2023-02-03T01:04:17;96610.00;;;6.50
54746;BMP180;40640;48.130;11.356;2023-02-03T01:08:20;96614.00;;;6.30
54746;BMP180;40640;48.130;11.356;2023-02-03T01:12:24;96623.00;;;6.20
54746;BMP180;40640;48.130;11.356;2023-02-03T01:16:28;96629.00;;;6.40
54746;BMP180;40640;48.130;11.356;2023-02-03T01:20:34;96639.00;;;6.30
54746;BMP180;40640;48.130;11.356;2023-02-03T01:24:37;96636.00;;;6.40
54746;BMP180;40640;48.130;11.356;2023-02-03T01:28:40;96622.00;;;6.40
54746;BMP180;40640;48.130;11.356;2023-02-03T01:32:45;96618.00;;;6.10
54746;BMP180;40640;48.130;11.356;2023-02-03T01:36:49;96613.00;;;6.40
54746;BMP180;40640;48.130;11.356;2023-02-03T01:40:52;96622.00;;;6.40
54746;BMP180;40640;48.130;11.356;2023-02-03T01:44:54;96610.00;;;6.50
54746;BMP180;40640;48.130;11.356;2023-02-03T01:49:03;96591.00;;;6.50
54746;BMP180;40640;48.130;11.356;2023-02-03T01:53:10;96595.00;;;6.20
54746;BMP180;40640;48.130;11.356;2023-02-03T01:57:16;96591.00;;;6.30
54746;BMP180;40640;48.130;11.356;2023-02-03T02:01:21;96587.00;;;6.20
54746;BMP180;40640;48.130;11.356;2023-02-03T02:05:27;96591.00;;;6.20
54746;BMP180;40640;48.130;11.356;2023-02-03T02:09:33;96581.00;;;6.20
54746;BMP180;40640;48.130;11.356;2023-02-03T02:13:36;96586.00;;;6.30
54746;BMP180;40640;48.130;11.356;2023-02-03T02:18:02;96592.00;;;6.30
54746;BMP180;40640;48.130;11.356;2023-02-03T02:22:13;96596.00;;;6.20
54746;BMP180;40640;48.130;11.356;2023-02-03T02:26:42;96587.00;;;6.10
54746;BMP180;40640;48.130;11.356;2023-02-03T02:35:42;96594.00;;;6.10
54746;BMP180;40640;48.130;11.356;2023-02-03T02:39:52;96579.00;;;6.30
54746;BMP180;40640;48.130;11.356;2023-02-03T02:43:59;96587.00;;;6.10
54746;BMP180;40640;48.130;11.356;2023-02-03T02:48:07;96582.00;;;6.20
54746;BMP180;40640;48.130;11.356;2023-02-03T02:52:13;96593.00;;;6.30
54746;BMP180;40640;48.130;11.356;2023-02-03T02:56:18;96596.00;;;6.40
54746;BMP180;40640;48.130;11.356;2023-02-03T03:00:22;96566.00;;;6.40
54746;BMP180;40640;48.130;11.356;2023-02-03T03:04:27;96583.00;;;6.50
54746;BMP180;40640;48.130;11.356;2023-02-03T03:08:37;96586.00;;;6.40
54746;BMP180;40640;48.130;11.356;2023-02-03T03:12:44;96585.00;;;6.10
54746;BMP180;40640;48.130;11.356;2023-02-03T03:16:53;96582.00;;;6.10
54746;BMP180;40640;48.130;11.356;2023-02-03T03:21:00;96587.00;;;6.20
54746;BMP180;40640;48.130;11.356;2023-02-03T03:25:12;96578.00;;;6.00
54746;BMP180;40640;48.130;11.356;2023-02-03T03:29:19;96595.00;;;6.30
54746;BMP180;40640;48.130;11.356;2023-02-03T03:33:23;96591.00;;;6.00
54746;BMP180;40640;48.130;11.356;2023-02-03T03:37:33;96577.00;;;6.00
54746;BMP180;40640;48.130;11.356;2023-02-03T03:41:41;96561.00;;;6.00
54746;BMP180;40640;48.130;11.356;2023-02-03T03:45:51;96553.00;;;6.10
54746;BMP180;40640;48.130;11.356;2023-02-03T03:49:57;96543.00;;;6.30
54746;BMP180;40640;48.130;11.356;2023-02-03T03:54:04;96534.00;;;6.50
54746;BMP180;40640;48.130;11.356;2023-02-03T03:58:12;96545.00;;;6.10
54746;BMP180;40640;48.130;11.356;2023-02-03T04:02:17;96560.00;;;6.00
54746;BMP180;40640;48.130;11.356;2023-02-03T04:06:22;96557.00;;;6.30
54746;BMP180;40640;48.130;11.356;2023-02-03T04:10:30;96567.00;;;6.00
54746;BMP180;40640;48.130;11.356;2023-02-03T04:14:35;96568.00;;;6.10
54746;BMP180;40640;48.130;11.356;2023-02-03T04:18:39;96562.00;;;6.10
54746;BMP180;40640;48.130;11.356;2023-02-03T04:22:42;96575.00;;;6.00
54746;BMP180;40640;48.130;11.356;2023-02-03T04:26:45;96578.00;;;6.10
54746;BMP180;40640;48.130;11.356;2023-02-03T04:30:49;96586.00;;;5.80
54746;BMP180;40640;48.130;11.356;2023-02-03T04:34:52;96598.00;;;6.00
54746;BMP180;40640;48.130;11.356;2023-02-03T04:38:55;96585.00;;;5.80
54746;BMP180;40640;48.130;11.356;2023-02-03T04:42:58;96576.00;;;6.20
54746;BMP180;40640;48.130;11.356;2023-02-03T04:47:02;96593.00;;;6.10
54746;BMP180;40640;48.130;11.356;2023-02-03T04:51:06;96606.00;;;6.20
54746;BMP180;40640;48.130;11.356;2023-02-03T04:55:09;96606.00;;;6.00
54746;BMP180;40640;48.130;11.356;2023-02-03T04:59:12;96593.00;;;5.90
54746;BMP180;40640;48.130;11.356;2023-02-03T05:03:16;96597.00;;;6.00
54746;BMP180;40640;48.130;11.356;2023-02-03T05:07:19;96583.00;;;6.00
54746;BMP180;40640;48.130;11.356;2023-02-03T05:11:22;96602.00;;;6.00
54746;BMP180;40640;48.130;11.356;2023-02-03T05:15:25;96602.00;;;5.80
54746;BMP180;40640;48.130;11.356;2023-02-03T05:19:29;96601.00;;;5.90
54746;BMP180;40640;48.130;11.356;2023-02-03T05:23:32;96612.00;;;5.80
54746;BMP180;40640;48.130;11.356;2023-02-03T05:27:38;96591.00;;;5.90
54746;BMP180;40640;48.130;11.356;2023-02-03T05:31:41;96599.00;;;5.80
54746;BMP180;40640;48.130;11.356;2023-02-03T05:35:45;96598.00;;;5.90
54746;BMP180;40640;48.130;11.356;2023-02-03T05:39:48;96578.00;;;5.90
54746;BMP180;40640;48.130;11.356;2023-02-03T05:43:51;96572.00;;;5.90
54746;BMP180;40640;48.130;11.356;2023-02-03T05:47:53;96577.00;;;5.90
54746;BMP180;40640;48.130;11.356;2023-02-03T05:51:57;96580.00;;;5.80
54746;BMP180;40640;48.130;11.356;2023-02-03T05:56:00;96569.00;;;6.00
54746;BMP180;40640;48.130;11.356;2023-02-03T06:00:04;96563.00;;;5.90
54746;BMP180;40640;48.130;11.356;2023-02-03T06:04:12;96568.00;;;6.00
54746;BMP180;40640;48.130;11.356;2023-02-03T06:08:16;96572.00;;;6.10
54746;BMP180;40640;48.130;11.356;2023-02-03T06:12:19;96565.00;;;6.10
54746;BMP180;40640;48.130;11.356;2023-02-03T06:16:22;96568.00;;;5.90
54746;BMP180;40640;48.130;11.356;2023-02-03T06:20:25;96561.00;;;6.20
54746;BMP180;40640;48.130;11.356;2023-02-03T06:24:30;96570.00;;;6.10
54746;BMP180;40640;48.130;11.356;2023-02-03T06:28:33;96577.00;;;6.30
54746;BMP180;40640;48.130;11.356;2023-02-03T06:32:36;96598.00;;;6.30
54746;BMP180;40640;48.130;11.356;2023-02-03T06:36:39;96592.00;;;6.30
54746;BMP180;40640;48.130;11.356;2023-02-03T06:40:45;96566.00;;;6.20
54746;BMP180;40640;48.130;11.356;2023-02-03T06:44:48;96546.00;;;6.00
54746;BMP180;40640;48.130;11.356;2023-02-03T06:48:50;96546.00;;;5.80
54746;BMP180;40640;48.130;11.356;2023-02-03T06:52:53;96560.00;;;6.00
54746;BMP180;40640;48.130;11.356;2023-02-03T06:56:57;96580.00;;;6.20
54746;BMP180;40640;48.130;11.356;2023-02-03T07:01:00;96604.00;;;6.00
54746;BMP180;40640;48.130;11.356;2023-02-03T07:05:04;96609.00;;;5.70
54746;BMP180;40640;48.130;11.356;2023-02-03T07:09:07;96594.00;;;6.10
54746;BMP180;40640;48.130;11.356;2023-02-03T07:13:11;96576.00;;;6.00
54746;BMP180;40640;48.130;11.356;2023-02-03T07:17:14;96569.00;;;6.00
54746;BMP180;40640;48.130;11.356;2023-02-03T07:21:17;96581.00;;;6.00
54746;BMP180;40640;48.130;11.356;2023-02-03T07:25:20;96555.00;;;6.20
54746;BMP180;40640;48.130;11.356;2023-02-03T07:29:24;96583.00;;;6.20
54746;BMP180;40640;48.130;11.356;2023-02-03T07:33:27;96572.00;;;6.30
54746;BMP180;40640;48.130;11.356;2023-02-03T07:37:30;96556.00;;;6.30
54746;BMP180;40640;48.130;11.356;2023-02-03T07:41:33;96538.00;;;6.20
54746;BMP180;40640;48.130;11.356;2023-02-03T07:45:37;96523.00;;;6.30
54746;BMP180;40640;48.130;11.356;2023-02-03T07:49:40;96548.00;;;6.40
54746;BMP180;40640;48.130;11.356;2023-02-03T07:53:43;96541.00;;;6.40
54746;BMP180;40640;48.130;11.356;2023-02-03T07:57:46;96538.00;;;6.40
54746;BMP180;40640;48.130;11.356;2023-02-03T08:01:50;96542.00;;;6.30
54746;BMP180;40640;48.130;11.356;2023-02-03T08:05:56;96548.00;;;6.50
54746;BMP180;40640;48.130;11.356;2023-02-03T08:09:59;96557.00;;;6.40
54746;BMP180;40640;48.130;11.356;2023-02-03T08:14:02;96555.00;;;6.60
54746;BMP180;40640;48.130;11.356;2023-02-03T08:18:06;96571.00;;;6.70
54746;BMP180;40640;48.130;11.356;2023-02-03T08:22:10;96595.00;;;6.80
54746;BMP180;40640;48.130;11.356;2023-02-03T08:26:16;96579.00;;;6.60
54746;BMP180;40640;48.130;11.356;2023-02-03T08:30:19;96601.00;;;6.50
54746;BMP180;40640;48.130;11.356;2023-02-03T08:34:23;96585.00;;;6.80
54746;BMP180;40640;48.130;11.356;2023-02-03T08:38:26;96589.00;;;6.80
54746;BMP180;40640;48.130;11.356;2023-02-03T08:42:29;96602.00;;;6.80
54746;BMP180;40640;48.130;11.356;2023-02-03T08:46:31;96597.00;;;6.80
54746;BMP180;40640;48.130;11.356;2023-02-03T08:50:40;96594.00;;;6.80
54746;BMP180;40640;48.130;11.356;2023-02-03T08:54:43;96556.00;;;6.80
54746;BMP180;40640;48.130;11.356;2023-02-03T08:58:46;96549.00;;;6.80
54746;BMP180;40640;48.130;11.356;2023-02-03T09:02:49;96554.00;;;7.00
54746;BMP180;40640;48.130;11.356;2023-02-03T09:06:53;96546.00;;;6.80
54746;BMP180;40640;48.130;11.356;2023-02-03T09:10:56;96539.00;;;6.90
54746;BMP180;40640;48.130;11.356;2023-02-03T09:14:59;96552.00;;;7.00
54746;BMP180;40640;48.130;11.356;2023-02-03T09:19:02;96545.00;;;7.00
54746;BMP180;40640;48.130;11.356;2023-02-03T09:23:06;96520.00;;;7.00
54746;BMP180;40640;48.130;11.356;2023-02-03T09:27:09;96545.00;;;7.10
54746;BMP180;40640;48.130;11.356;2023-02-03T09:31:14;96549.00;;;7.10
54746;BMP180;40640;48.130;11.356;2023-02-03T09:35:18;96547.00;;;7.10
54746;BMP180;40640;48.130;11.356;2023-02-03T09:39:22;96522.00;;;7.30
54746;BMP180;40640;48.130;11.356;2023-02-03T09:43:32;96528.00;;;7.30
54746;BMP180;40640;48.130;11.356;2023-02-03T09:47:38;96533.00;;;7.40
54746;BMP180;40640;48.130;11.356;2023-02-03T09:51:42;96535.00;;;7.50
54746;BMP180;40640;48.130;11.356;2023-02-03T09:55:48;96556.00;;;7.60
54746;BMP180;40640;48.130;11.356;2023-02-03T09:59:53;96573.00;;;7.70
54746;BMP180;40640;48.130;11.356;2023-02-03T10:04:00;96549.00;;;7.90
54746;BMP180;40640;48.130;11.356;2023-02-03T10:08:11;96542.00;;;8.00
54746;BMP180;40640;48.130;11.356;2023-02-03T10:12:31;96554.00;;;7.90
54746;BMP180;40640;48.130;11.356;2023-02-03T10:16:51;96557.00;;;7.70
54746;BMP180;40640;48.130;11.356;2023-02-03T10:20:59;96567.00;;;7.80
54746;BMP180;40640;48.130;11.356;2023-02-03T10:25:06;96555.00;;;7.70
54746;BMP180;40640;48.130;11.356;2023-02-03T10:29:19;96554.00;;;7.80
54746;BMP180;40640;48.130;11.356;2023-02-03T10:33:24;96546.00;;;8.10
54746;BMP180;40640;48.130;11.356;2023-02-03T10:37:29;96547.00;;;8.00
54746;BMP180;40640;48.130;11.356;2023-02-03T10:41:35;96560.00;;;8.10
54746;BMP180;40640;48.130;11.356;2023-02-03T10:45:39;96534.00;;;8.00
54746;BMP180;40640;48.130;11.356;2023-02-03T10:49:42;96545.00;;;8.10
54746;BMP180;40640;48.130;11.356;2023-02-03T10:53:46;96528.00;;;8.10
54746;BMP180;40640;48.130;11.356;2023-02-03T10:57:53;96545.00;;;8.00
54746;BMP180;40640;48.130;11.356;2023-02-03T11:01:58;96543.00;;;8.20
54746;BMP180;40640;48.130;11.356;2023-02-03T11:06:06;96548.00;;;8.20
54746;BMP180;40640;48.130;11.356;2023-02-03T11:10:32;96549.00;;;8.10
54746;BMP180;40640;48.130;11.356;2023-02-03T11:14:37;96538.00;;;8.20
54746;BMP180;40640;48.130;11.356;2023-02-03T11:18:51;96542.00;;;8.20
54746;BMP180;40640;48.130;11.356;2023-02-03T11:22:55;96534.00;;;8.20
54746;BMP180;40640;48.130;11.356;2023-02-03T11:26:59;96518.00;;;8.40
54746;BMP180;40640;48.130;11.356;2023-02-03T11:31:14;96507.00;;;8.40
54746;BMP180;40640;48.130;11.356;2023-02-03T11:35:21;96517.00;;;8.60
54746;BMP180;40640;48.130;11.356;2023-02-03T11:39:25;96513.00;;;8.80
54746;BMP180;40640;48.130;11.356;2023-02-03T11:43:29;96479.00;;;8.90
54746;BMP180;40640;48.130;11.356;2023-02-03T11:47:32;96476.00;;;9.10
54746;BMP180;40640;48.130;11.356;2023-02-03T11:51:42;96457.00;;;9.30
54746;BMP180;40640;48.130;11.356;2023-02-03T11:55:57;96467.00;;;9.20
54746;BMP180;40640;48.130;11.356;2023-02-03T12:00:14;96466.00;;;9.30
54746;BMP180;40640;48.130;11.356;2023-02-03T12:04:38;96475.00;;;9.20
54746;BMP180;40640;48.130;11.356;2023-02-03T12:09:04;96462.00;;;9.20
54746;BMP180;40640;48.130;11.356;2023-02-03T12:13:22;96447.00;;;9.00
54746;BMP180;40640;48.130;11.356;2023-02-03T12:17:50;96460.00;;;8.80
54746;BMP180;40640;48.130;11.356;2023-02-03T12:22:03;96447.00;;;8.60
54746;BMP180;40640;48.130;11.356;2023-02-03T12:26:17;96447.00;;;8.70
54746;BMP180;40640;48.130;11.356;2023-02-03T12:30:24;96440.00;;;8.70
54746;BMP180;40640;48.130;11.356;2023-02-03T12:34:33;96430.00;;;8.60
54746;BMP180;40640;48.130;11.356;2023-02-03T12:38:41;96432.00;;;8.30
54746;BMP180;40640;48.130;11.356;2023-02-03T12:42:50;96413.00;;;8.40
54746;BMP180;40640;48.130;11.356;2023-02-03T12:46:59;96417.00;;;8.50
54746;BMP180;40640;48.130;11.356;2023-02-03T12:51:10;96389.00;;;8.40
54746;BMP180;40640;48.130;11.356;2023-02-03T12:55:20;96377.00;;;8.40
54746;BMP180;40640;48.130;11.356;2023-02-03T12:59:29;96367.00;;;8.70
54746;BMP180;40640;48.130;11.356;2023-02-03T13:03:40;96381.00;;;8.80
54746;BMP180;40640;48.130;11.356;2023-02-03T13:07:47;96349.00;;;8.50
54746;BMP180;40640;48.130;11.356;2023-02-03T13:11:56;96342.00;;;8.40
54746;BMP180;40640;48.130;11.356;2023-02-03T13:16:06;96341.00;;;8.30
54746;BMP180;40640;48.130;11.356;2023-02-03T13:20:16;96330.00;;;8.40
54746;BMP180;40640;48.130;11.356;2023-02-03T13:24:22;96318.00;;;8.30
54746;BMP180;40640;48.130;11.356;2023-02-03T13:28:38;96334.00;;;8.60
54746;BMP180;40640;48.130;11.356;2023-02-03T13:32:59;96336.00;;;8.50
54746;BMP180;40640;48.130;11.356;2023-02-03T13:37:19;96332.00;;;8.30
54746;BMP180;40640;48.130;11.356;2023-02-03T13:41:30;96331.00;;;8.40
54746;BMP180;40640;48.130;11.356;2023-02-03T13:45:39;96322.00;;;8.40
54746;BMP180;40640;48.130;11.356;2023-02-03T13:49:49;96318.00;;;8.30
54746;BMP180;40640;48.130;11.356;2023-02-03T13:53:58;96319.00;;;8.20
54746;BMP180;40640;48.130;11.356;2023-02-03T13:58:04;96330.00;;;8.30
54746;BMP180;40640;48.130;11.356;2023-02-03T14:06:58;96307.00;;;8.40
54746;BMP180;40640;48.130;11.356;2023-02-03T14:11:43;96301.00;;;8.30
54746;BMP180;40640;48.130;11.356;2023-02-03T14:16:12;96302.00;;;8.40
54746;BMP180;40640;48.130;11.356;2023-02-03T14:20:41;96290.00;;;8.10
54746;BMP180;40640;48.130;11.356;2023-02-03T14:24:51;96269.00;;;8.20
54746;BMP180;40640;48.130;11.356;2023-02-03T14:28:55;96277.00;;;8.20
54746;BMP180;40640;48.130;11.356;2023-02-03T14:33:00;96285.00;;;8.00
54746;BMP180;40640;48.130;11.356;2023-02-03T14:37:16;96281.00;;;8.20
54746;BMP180;40640;48.130;11.356;2023-02-03T14:41:25;96297.00;;;8.10
54746;BMP180;40640;48.130;11.356;2023-02-03T14:45:46;96300.00;;;8.20
54746;BMP180;40640;48.130;11.356;2023-02-03T14:50:04;96300.00;;;8.40
54746;BMP180;40640;48.130;11.356;2023-02-03T14:54:32;96285.00;;;8.20
54746;BMP180;40640;48.130;11.356;2023-02-03T14:58:43;96280.00;;;8.00
54746;BMP180;40640;48.130;11.356;2023-02-03T15:03:21;96256.00;;;8.10
54746;BMP180;40640;48.130;11.356;2023-02-03T15:07:36;96254.00;;;8.10
54746;BMP180;40640;48.130;11.356;2023-02-03T15:11:43;96269.00;;;8.30
54746;BMP180;40640;48.130;11.356;2023-02-03T15:15:49;96255.00;;;8.00
54746;BMP180;40640;48.130;11.356;2023-02-03T15:19:54;96265.00;;;8.10
54746;BMP180;40640;48.130;11.356;2023-02-03T15:23:57;96275.00;;;8.00
54746;BMP180;40640;48.130;11.356;2023-02-03T15:28:11;96274.00;;;8.10
54746;BMP180;40640;48.130;11.356;2023-02-03T15:32:22;96277.00;;;8.10
54746;BMP180;40640;48.130;11.356;2023-02-03T15:36:34;96305.00;;;7.70
54746;BMP180;40640;48.130;11.356;2023-02-03T15:40:43;96288.00;;;7.80
54746;BMP180;40640;48.130;11.356;2023-02-03T15:44:50;96276.00;;;8.00
54746;BMP180;40640;48.130;11.356;2023-02-03T15:49:00;96285.00;;;7.90
54746;BMP180;40640;48.130;11.356;2023-02-03T15:53:06;96273.00;;;7.90
54746;BMP180;40640;48.130;11.356;2023-02-03T15:57:15;96268.00;;;8.10
54746;BMP180;40640;48.130;11.356;2023-02-03T16:01:21;96270.00;;;7.90
54746;BMP180;40640;48.130;11.356;2023-02-03T16:05:30;96294.00;;;7.70
54746;BMP180;40640;48.130;11.356;2023-02-03T16:09:39;96290.00;;;7.80
54746;BMP180;40640;48.130;11.356;2023-02-03T16:13:42;96302.00;;;7.70
54746;BMP180;40640;48.130;11.356;2023-02-03T16:17:53;96300.00;;;7.90
54746;BMP180;40640;48.130;11.356;2023-02-03T16:21:59;96290.00;;;7.80
54746;BMP180;40640;48.130;11.356;2023-02-03T16:26:03;96294.00;;;7.90
54746;BMP180;40640;48.130;11.356;2023-02-03T16:30:23;96288.00;;;7.90
54746;BMP180;40640;48.130;11.356;2023-02-03T16:34:43;96277.00;;;7.70
54746;BMP180;40640;48.130;11.356;2023-02-03T16:39:10;96287.00;;;7.90
54746;BMP180;40640;48.130;11.356;2023-02-03T16:43:31;96297.00;;;8.00
54746;BMP180;40640;48.130;11.356;2023-02-03T16:47:51;96300.00;;;7.80
54746;BMP180;40640;48.130;11.356;2023-02-03T16:52:11;96307.00;;;7.70
54746;BMP180;40640;48.130;11.356;2023-02-03T16:56:15;96356.00;;;7.80
54746;BMP180;40640;48.130;11.356;2023-02-03T17:00:20;96341.00;;;7.90
54746;BMP180;40640;48.130;11.356;2023-02-03T17:04:23;96328.00;;;7.70
54746;BMP180;40640;48.130;11.356;2023-02-03T17:08:26;96332.00;;;7.70
54746;BMP180;40640;48.130;11.356;2023-02-03T17:12:30;96336.00;;;7.80
54746;BMP180;40640;48.130;11.356;2023-02-03T17:16:34;96347.00;;;7.90
54746;BMP180;40640;48.130;11.356;2023-02-03T17:20:36;96343.00;;;7.80
54746;BMP180;40640;48.130;11.356;2023-02-03T17:24:40;96365.00;;;7.60
54746;BMP180;40640;48.130;11.356;2023-02-03T17:28:44;96358.00;;;7.70
54746;BMP180;40640;48.130;11.356;2023-02-03T17:32:47;96344.00;;;7.60
54746;BMP180;40640;48.130;11.356;2023-02-03T17:36:50;96364.00;;;7.70
54746;BMP180;40640;48.130;11.356;2023-02-03T17:40:55;96337.00;;;7.70
54746;BMP180;40640;48.130;11.356;2023-02-03T17:45:17;96359.00;;;7.90
54746;BMP180;40640;48.130;11.356;2023-02-03T17:49:38;96355.00;;;7.70
54746;BMP180;40640;48.130;11.356;2023-02-03T17:53:58;96350.00;;;7.60
54746;BMP180;40640;48.130;11.356;2023-02-03T17:58:06;96346.00;;;7.60
54746;BMP180;40640;48.130;11.356;2023-02-03T18:02:10;96351.00;;;7.60
54746;BMP180;40640;48.130;11.356;2023-02-03T18:06:14;96360.00;;;7.90
54746;BMP180;40640;48.130;11.356;2023-02-03T18:10:18;96340.00;;;7.90
54746;BMP180;40640;48.130;11.356;2023-02-03T18:14:20;96359.00;;;7.50
54746;BMP180;40640;48.130;11.356;2023-02-03T18:18:25;96361.00;;;7.50
54746;BMP180;40640;48.130;11.356;2023-02-03T18:22:28;96364.00;;;7.70
54746;BMP180;40640;48.130;11.356;2023-02-03T18:26:32;96346.00;;;7.40
54746;BMP180;40640;48.130;11.356;2023-02-03T18:30:37;96343.00;;;8.10
54746;BMP180;40640;48.130;11.356;2023-02-03T18:34:41;96355.00;;;7.70
54746;BMP180;40640;48.130;11.356;2023-02-03T18:38:45;96368.00;;;7.60
54746;BMP180;40640;48.130;11.356;2023-02-03T18:42:48;96377.00;;;7.50
54746;BMP180;40640;48.130;11.356;2023-02-03T18:46:51;96376.00;;;7.60
54746;BMP180;40640;48.130;11.356;2023-02-03T18:50:56;96373.00;;;7.50
54746;BMP180;40640;48.130;11.356;2023-02-03T18:54:58;96380.00;;;7.60
54746;BMP180;40640;48.130;11.356;2023-02-03T18:59:06;96377.00;;;7.50
54746;BMP180;40640;48.130;11.356;2023-02-03T19:03:09;96364.00;;;7.60
54746;BMP180;40640;48.130;11.356;2023-02-03T19:07:13;96371.00;;;7.60
54746;BMP180;40640;48.130;11.356;2023-02-03T19:11:16;96376.00;;;7.40
54746;BMP180;40640;48.130;11.356;2023-02-03T19:15:19;96374.00;;;7.40
54746;BMP180;40640;48.130;11.356;2023-02-03T19:19:22;96385.00;;;7.50
54746;BMP180;40640;48.130;11.356;2023-02-03T19:23:26;96374.00;;;7.70
54746;BMP180;40640;48.130;11.356;2023-02-03T19:27:29;96380.00;;;7.40
54746;BMP180;40640;48.130;11.356;2023-02-03T19:31:32;96362.00;;;7.40
54746;BMP180;40640;48.130;11.356;2023-02-03T19:35:36;96378.00;;;7.40
54746;BMP180;40640;48.130;11.356;2023-02-03T19:39:40;96393.00;;;7.50
54746;BMP180;40640;48.130;11.356;2023-02-03T19:43:45;96391.00;;;7.20
54746;BMP180;40640;48.130;11.356;2023-02-03T19:47:49;96380.00;;;7.20
54746;BMP180;40640;48.130;11.356;2023-02-03T19:51:51;96399.00;;;7.40
54746;BMP180;40640;48.130;11.356;2023-02-03T19:55:55;96397.00;;;7.20
54746;BMP180;40640;48.130;11.356;2023-02-03T19:59:58;96397.00;;;7.20
54746;BMP180;40640;48.130;11.356;2023-02-03T20:04:02;96391.00;;;7.20
54746;BMP180;40640;48.130;11.356;2023-02-03T20:08:05;96377.00;;;7.50
54746;BMP180;40640;48.130;11.356;2023-02-03T20:12:10;96390.00;;;7.30
54746;BMP180;40640;48.130;11.356;2023-02-03T20:16:13;96392.00;;;7.20
54746;BMP180;40640;48.130;11.356;2023-02-03T20:20:16;96374.00;;;7.20
54746;BMP180;40640;48.130;11.356;2023-02-03T20:24:21;96395.00;;;7.60
54746;BMP180;40640;48.130;11.356;2023-02-03T20:28:26;96397.00;;;7.30
54746;BMP180;40640;48.130;11.356;2023-02-03T20:32:29;96370.00;;;7.00
54746;BMP180;40640;48.130;11.356;2023-02-03T20:36:32;96366.00;;;7.20
54746;BMP180;40640;48.130;11.356;2023-02-03T20:40:35;96372.00;;;7.20
54746;BMP180;40640;48.130;11.356;2023-02-03T20:44:39;96368.00;;;7.10
54746;BMP180;40640;48.130;11.356;2023-02-03T20:48:43;96383.00;;;7.20
54746;BMP180;40640;48.130;11.356;2023-02-03T20:52:47;96358.00;;;7.00
54746;BMP180;40640;48.130;11.356;2023-02-03T20:56:50;96368.00;;;7.40
54746;BMP180;40640;48.130;11.356;2023-02-03T21:00:54;96393.00;;;7.40
54746;BMP180;40640;48.130;11.356;2023-02-03T21:04:59;96380.00;;;7.20
54746;BMP180;40640;48.130;11.356;2023-02-03T21:09:11;96366.00;;;7.40
54746;BMP180;40640;48.130;11.356;2023-02-03T21:13:17;96365.00;;;7.40
54746;BMP180;40640;48.130;11.356;2023-02-03T21:17:24;96390.00;;;7.00
54746;BMP180;40640;48.130;11.356;2023-02-03T21:21:32;96384.00;;;7.40
54746;BMP180;40640;48.130;11.356;2023-02-03T21:25:35;96371.00;;;7.00
54746;BMP180;40640;48.130;11.356;2023-02-03T21:29:38;96382.00;;;7.30
54746;BMP180;40640;48.130;11.356;2023-02-03T21:33:43;96347.00;;;7.20
54746;BMP180;40640;48.130;11.356;2023-02-03T21:37:46;96348.00;;;7.30
54746;BMP180;40640;48.130;11.356;2023-02-03T21:41:49;96345.00;;;7.40
54746;BMP180;40640;48.130;11.356;2023-02-03T21:45:52;96341.00;;;7.40
54746;BMP180;40640;48.130;11.356;2023-02-03T21:49:59;96351.00;;;7.20
54746;BMP180;40640;48.130;11.356;2023-02-03T21:54:21;96351.00;;;7.10
54746;BMP180;40640;48.130;11.356;2023-02-03T21:58:26;96352.00;;;7.20
54746;BMP180;40640;48.130;11.356;2023-02-03T22:02:47;96350.00;;;7.00
54746;BMP180;40640;48.130;11.356;2023-02-03T22:06:57;96354.00;;;7.00
54746;BMP180;40640;48.130;11.356;2023-02-03T22:11:00;96358.00;;;6.90
54746;BMP180;40640;48.130;11.356;2023-02-03T22:15:03;96387.00;;;7.00
54746;BMP180;40640;48.130;11.356;2023-02-03T22:19:07;96368.00;;;7.10
54746;BMP180;40640;48.130;11.356;2023-02-03T22:23:11;96359.00;;;6.90
54746;BMP180;40640;48.130;11.356;2023-02-03T22:27:14;96350.00;;;7.00
54746;BMP180;40640;48.130;11.356;2023-02-03T22:31:19;96349.00;;;7.40
54746;BMP180;40640;48.130;11.356;2023-02-03T22:35:22;96347.00;;;7.10
54746;BMP180;40640;48.130;11.356;2023-02-03T22:39:26;96363.00;;;7.10
54746;BMP180;40640;48.130;11.356;2023-02-03T22:43:29;96371.00;;;7.10
54746;BMP180;40640;48.130;11.356;2023-02-03T22:47:32;96342.00;;;7.10
54746;BMP180;40640;48.130;11.356;2023-02-03T22:51:35;96353.00;;;6.70
54746;BMP180;40640;48.130;11.356;2023-02-03T22:55:39;96370.00;;;6.80
54746;BMP180;40640;48.130;11.356;2023-02-03T22:59:43;96374.00;;;6.60
54746;BMP180;40640;48.130;11.356;2023-02-03T23:03:46;96385.00;;;6.70
54746;BMP180;40640;48.130;11.356;2023-02-03T23:07:49;96373.00;;;6.60
54746;BMP180;40640;48.130;11.356;2023-02-03T23:11:53;96379.00;;;6.60
54746;BMP180;40640;48.130;11.356;2023-02-03T23:15:56;96389.00;;;6.90
54746;BMP180;40640;48.130;11.356;2023-02-03T23:19:59;96426.00;;;6.60
54746;BMP180;40640;48.130;11.356;2023-02-03T23:24:02;96417.00;;;6.60
54746;BMP180;40640;48.130;11.356;2023-02-03T23:28:07;96414.00;;;6.90
54746;BMP180;40640;48.130;11.356;2023-02-03T23:32:09;96429.00;;;6.60
54746;BMP180;40640;48.130;11.356;2023-02-03T23:36:12;96414.00;;;6.50
54746;BMP180;40640;48.130;11.356;2023-02-03T23:40:15;96432.00;;;6.60
54746;BMP180;40640;48.130;11.356;2023-02-03T23:44:19;96438.00;;;6.60
54746;BMP180;40640;48.130;11.356;2023-02-03T23:48:22;96429.00;;;6.50
54746;BMP180;40640;48.130;11.356;2023-02-03T23:52:25;96424.00;;;6.70